RONIN01 RODN-RODN

Flight info

Callsign RONIN01
Flight time 0h 9m
Altitude 30000
Route VFR
Aircraft E3TF/M-SDFGHRWY/C

Departure

Time 2026-04-19 08:08
Airport Kadena Air Base (RODN)

Arrival

Time 2026-04-19 08:17
Airport Kadena Air Base (RODN)
Time Latitude Longitude Altitude Speed Heading
2026-04-19 07:45 28.90062 125.68952 29923 ft 561 kts 144°
2026-04-19 07:45 28.84374 125.75053 29933 ft 561 kts 143°
2026-04-19 07:46 28.78736 125.81178 29931 ft 559 kts 143°
2026-04-19 07:46 28.73154 125.87289 29937 ft 559 kts 143°
2026-04-19 07:47 28.67539 125.93438 29935 ft 560 kts 143°
2026-04-19 07:47 28.61924 125.99578 29935 ft 560 kts 143°
2026-04-19 07:48 28.56302 126.05720 29940 ft 560 kts 143°
2026-04-19 07:48 28.50678 126.11855 29939 ft 560 kts 143°
2026-04-19 07:49 28.45052 126.17985 29936 ft 560 kts 143°
2026-04-19 07:49 28.39468 126.24064 29936 ft 560 kts 143°
2026-04-19 07:50 28.33881 126.30189 29932 ft 557 kts 143°
2026-04-19 07:50 28.28324 126.36327 29934 ft 557 kts 143°
2026-04-19 07:51 28.22762 126.42471 29931 ft 558 kts 143°
2026-04-19 07:51 28.17197 126.48607 29927 ft 557 kts 143°
2026-04-19 07:52 28.11713 126.54684 29925 ft 552 kts 143°
2026-04-19 07:52 28.06235 126.60796 29934 ft 552 kts 143°
2026-04-19 07:53 28.00775 126.66894 29925 ft 541 kts 143°
2026-04-19 07:53 27.98167 126.69841 29920 ft 520 kts 143°
2026-04-19 07:53 27.95639 126.72719 29922 ft 511 kts 144°
2026-04-19 07:53 27.92953 126.75274 29909 ft 499 kts 155°
2026-04-19 07:54 27.89978 126.77234 29939 ft 491 kts 161°
2026-04-19 07:54 27.83891 126.80649 29726 ft 494 kts 163°
2026-04-19 07:54 27.80788 126.82311 29210 ft 491 kts 163°
2026-04-19 07:55 27.77709 126.83945 28855 ft 485 kts 163°
2026-04-19 07:55 27.74659 126.85549 28503 ft 484 kts 163°
2026-04-19 07:55 27.71599 126.87148 28161 ft 483 kts 163°
2026-04-19 07:55 27.68547 126.88732 27833 ft 482 kts 163°
2026-04-19 07:56 27.65486 126.90311 27499 ft 481 kts 163°
2026-04-19 07:56 27.62452 126.91868 27174 ft 479 kts 163°
2026-04-19 07:56 27.59411 126.93421 26842 ft 478 kts 163°
2026-04-19 07:56 27.56387 126.94955 26509 ft 477 kts 163°
2026-04-19 07:57 27.53390 126.96460 26104 ft 477 kts 163°
2026-04-19 07:57 27.50359 126.97969 25678 ft 475 kts 163°
2026-04-19 07:57 27.47331 126.99463 25245 ft 473 kts 164°
2026-04-19 07:57 27.44323 127.00945 24804 ft 469 kts 164°
2026-04-19 07:58 27.41341 127.02413 24378 ft 463 kts 164°
2026-04-19 07:58 27.38432 127.03849 23926 ft 452 kts 163°
2026-04-19 07:58 27.35572 127.05259 23464 ft 444 kts 163°
2026-04-19 07:58 27.32753 127.06642 22933 ft 440 kts 163°
2026-04-19 07:59 27.29949 127.08008 22412 ft 438 kts 163°
2026-04-19 07:59 27.27155 127.09357 21874 ft 436 kts 164°
2026-04-19 07:59 27.24419 127.10675 21261 ft 426 kts 164°
2026-04-19 07:59 27.21723 127.11973 20639 ft 420 kts 163°
2026-04-19 08:00 27.19034 127.13255 20058 ft 419 kts 164°
2026-04-19 08:00 27.16349 127.14521 19492 ft 417 kts 163°
2026-04-19 08:00 27.13676 127.15770 18932 ft 415 kts 163°
2026-04-19 08:00 27.11007 127.17003 18391 ft 413 kts 164°
2026-04-19 08:01 27.08351 127.18218 17789 ft 409 kts 164°
2026-04-19 08:01 27.05748 127.19404 17169 ft 400 kts 164°
2026-04-19 08:01 27.03192 127.20569 16556 ft 392 kts 164°
2026-04-19 08:01 27.00722 127.21699 15969 ft 384 kts 164°
2026-04-19 08:02 26.99059 127.22460 15560 ft 379 kts 164°
2026-04-19 08:02 26.96636 127.23549 14987 ft 370 kts 167°
2026-04-19 08:02 26.94232 127.24343 14433 ft 361 kts 172°
2026-04-19 08:02 26.91809 127.25009 13880 ft 356 kts 173°
2026-04-19 08:03 26.89395 127.25630 13123 ft 355 kts 173°
2026-04-19 08:03 26.86992 127.26222 12370 ft 352 kts 174°
2026-04-19 08:03 26.84604 127.26792 11635 ft 349 kts 174°
2026-04-19 08:03 26.82236 127.27343 10906 ft 345 kts 174°
2026-04-19 08:04 26.79904 127.27874 10141 ft 335 kts 174°
2026-04-19 08:04 26.77653 127.28383 9245 ft 327 kts 174°
2026-04-19 08:04 26.75442 127.28871 8472 ft 319 kts 174°
2026-04-19 08:04 26.73288 127.29338 7719 ft 312 kts 174°
2026-04-19 08:05 26.71199 127.29780 7011 ft 305 kts 174°
2026-04-19 08:05 26.69135 127.30211 6346 ft 298 kts 174°
2026-04-19 08:05 26.67110 127.30623 5645 ft 293 kts 174°
2026-04-19 08:05 26.65122 127.31012 4961 ft 288 kts 174°
2026-04-19 08:06 26.63184 127.31377 4520 ft 278 kts 174°
2026-04-19 08:06 26.61294 127.31730 4151 ft 273 kts 174°
2026-04-19 08:06 26.59421 127.32073 3849 ft 273 kts 174°
2026-04-19 08:06 26.57555 127.32410 3544 ft 271 kts 174°
2026-04-19 08:07 26.55700 127.32745 3266 ft 268 kts 174°
2026-04-19 08:07 26.53871 127.33072 3123 ft 266 kts 174°
2026-04-19 08:07 26.52073 127.33389 3056 ft 256 kts 171°
2026-04-19 08:07 26.50412 127.34124 2985 ft 260 kts 149°
2026-04-19 08:08 26.49042 127.35417 2981 ft 261 kts 137°
2026-04-19 08:08 26.47781 127.36851 2976 ft 252 kts 135°
2026-04-19 08:08 26.46625 127.38233 2934 ft 238 kts 134°
2026-04-19 08:08 26.45502 127.39586 2783 ft 237 kts 134°
2026-04-19 08:09 26.44393 127.40941 2551 ft 237 kts 134°
2026-04-19 08:09 26.43256 127.42312 2118 ft 241 kts 133°
2026-04-19 08:09 26.42129 127.43643 2041 ft 232 kts 134°
2026-04-19 08:09 26.41009 127.44954 2110 ft 231 kts 134°
2026-04-19 08:10 26.39905 127.46252 2293 ft 234 kts 135°
2026-04-19 08:10 26.38805 127.47554 2369 ft 229 kts 134°
2026-04-19 08:10 26.37704 127.48860 2440 ft 234 kts 134°
2026-04-19 08:10 26.36614 127.50159 2443 ft 224 kts 134°
2026-04-19 08:11 26.35611 127.51373 2468 ft 201 kts 134°
2026-04-19 08:11 26.34665 127.52506 2469 ft 200 kts 134°
2026-04-19 08:11 26.33711 127.53643 2477 ft 202 kts 135°
2026-04-19 08:11 26.32762 127.54785 2471 ft 202 kts 134°
2026-04-19 08:12 26.31834 127.55895 2458 ft 186 kts 134°
2026-04-19 08:12 26.30976 127.56915 2461 ft 177 kts 135°
2026-04-19 08:12 26.30136 127.57934 2473 ft 178 kts 134°
2026-04-19 08:12 26.29293 127.58966 2469 ft 180 kts 134°
2026-04-19 08:13 26.28445 127.59991 2472 ft 179 kts 134°
2026-04-19 08:13 26.27610 127.61017 2467 ft 179 kts 134°
2026-04-19 08:13 26.26784 127.62035 2421 ft 179 kts 134°
2026-04-19 08:13 26.26147 127.63231 2201 ft 185 kts 101°
2026-04-19 08:14 26.26450 127.64549 1783 ft 179 kts 45°
2026-04-19 08:14 26.28117 127.66328 1576 ft 161 kts 44°
2026-04-19 08:14 26.28827 127.67287 1458 ft 162 kts 48°
2026-04-19 08:15 26.29526 127.68268 1367 ft 164 kts 47°
2026-04-19 08:15 26.30216 127.69207 1364 ft 154 kts 47°
2026-04-19 08:15 26.30881 127.70136 1252 ft 147 kts 48°
2026-04-19 08:15 26.31508 127.71007 938 ft 145 kts 47°
2026-04-19 08:16 26.32141 127.71849 749 ft 143 kts 46°
2026-04-19 08:16 26.32784 127.72701 614 ft 153 kts 46°
2026-04-19 08:16 26.33462 127.73594 479 ft 147 kts 45°
2026-04-19 08:16 26.34105 127.74460 301 ft 143 kts 47°
2026-04-19 08:17 26.34736 127.75318 97 ft 143 kts 46°
2026-04-19 08:17 26.35315 127.76098 85 ft 117 kts 50°
2026-04-19 08:17 26.35786 127.76742 85 ft 98 kts 52°
2026-04-19 08:17 26.36142 127.77230 82 ft 44 kts 51°
2026-04-19 08:18 26.36231 127.77339 85 ft 10 kts 25°
2026-04-19 08:18 26.36295 127.77343 85 ft 9 kts 343°
2026-04-19 08:18 26.36340 127.77314 87 ft 7 kts 321°
2026-04-19 08:18 26.36375 127.77283 89 ft 6 kts 321°
2026-04-19 08:19 26.36412 127.77250 90 ft 7 kts 321°
2026-04-19 08:19 26.36457 127.77208 89 ft 9 kts 315°
2026-04-19 08:19 26.36474 127.77155 90 ft 4 kts 257°
2026-04-19 08:19 26.36453 127.77118 92 ft 10 kts 231°
2026-04-19 08:20 26.36390 127.77031 88 ft 16 kts 232°
2026-04-19 08:20 26.36318 127.76929 88 ft 17 kts 230°
2026-04-19 08:20 26.36237 127.76823 90 ft 19 kts 231°
2026-04-19 08:20 26.36161 127.76719 91 ft 16 kts 232°
2026-04-19 08:21 26.36097 127.76625 91 ft 11 kts 229°
2026-04-19 08:21 26.36041 127.76584 91 ft 10 kts 213°
2026-04-19 08:21 26.35973 127.76527 90 ft 13 kts 214°
2026-04-19 08:21 26.35895 127.76467 91 ft 15 kts 215°
2026-04-19 08:22 26.35820 127.76389 90 ft 16 kts 227°
2026-04-19 08:22 26.35759 127.76318 91 ft 11 kts 231°
2026-04-19 08:22 26.35709 127.76247 90 ft 11 kts 231°
2026-04-19 08:22 26.35659 127.76178 91 ft 12 kts 231°
2026-04-19 08:23 26.35647 127.76161 89 ft 0 kts 231°
2026-04-19 08:23 26.35643 127.76156 92 ft 5 kts 230°
2026-04-19 08:24 26.35590 127.76086 90 ft 15 kts 230°
2026-04-19 08:24 26.35555 127.76008 91 ft 9 kts 282°
2026-04-19 08:24 26.35602 127.75940 89 ft 13 kts 317°
2026-04-19 08:24 26.35676 127.75873 89 ft 14 kts 321°
2026-04-19 08:25 26.35755 127.75804 90 ft 14 kts 329°
2026-04-19 08:25 26.35823 127.75794 91 ft 5 kts 26°
2026-04-19 08:25 26.35845 127.75823 88 ft 7 kts 53°
2026-04-19 08:25 26.35883 127.75877 92 ft 10 kts 51°
2026-04-19 08:26 26.35924 127.75926 89 ft 4 kts 23°
2026-04-19 08:26 26.35937 127.75925 89 ft 1 kts 323°
2026-04-19 08:26 26.35950 127.75912 92 ft 3 kts 321°
2026-04-19 08:26 26.35973 127.75893 91 ft 3 kts 321°
2026-04-19 08:27 26.35975 127.75890 91 ft 0 kts 321°